Latest Weather Observations for Mount Lofty

IDS60801

Issued at 6:02 pm CDT Thursday 2 April 2015 (issued every 30 minutes, with the page automatically refreshed every 10 minutes)

About weather observations | Map of weather stations | Latest weather observations for SA | Other Formats
Station Details ID: 023842 Name: MOUNT LOFTY Lat: -34.98 Lon: 138.71 Height: 685.0 m
Data from the previous 72 hours. | See also: Recent months at Mount Lofty
Date/Time
CDT
Temp
°C
App
Temp
°C
Dew
Point
Rel
Hum
%
Delta-T
°C
Wind Press
QNH
hPa
Press
MSL
hPa
Rain
since 9 am
mm
Dir
 
Spd
km/h
Gust
km/h
Spd
kts
Gust
kts
02/06:00pm 11.9 7.2 5.3 64 3.2 ESE 19 32 10 17 - - 0.0
02/05:30pm 13.0 9.6 5.7 61 3.6 ESE 13 32 7 17 - - 0.0
02/05:00pm 13.5 9.6 3.6 51 4.6 ESE 13 24 7 13 - - 0.0
02/04:30pm 14.0 10.2 4.0 51 4.7 ESE 13 30 7 16 - - 0.0
02/04:00pm 13.7 9.5 3.8 51 4.7 ESE 15 32 8 17 - - 0.0
02/03:30pm 14.2 10.2 4.8 53 4.5 ESE 15 30 8 16 - - 0.0
02/03:00pm 13.8 9.8 4.9 55 4.3 ESE 15 33 8 18 - - 0.0
02/02:30pm 14.1 9.7 4.7 53 4.5 ESE 17 35 9 19 - - 0.0
02/02:00pm 14.0 9.3 5.1 55 4.3 ESE 19 30 10 16 - - 0.0
02/01:30pm 13.6 9.4 5.5 58 4.0 ESE 17 35 9 19 - - 0.0
02/01:00pm 13.4 8.9 6.0 61 3.6 ESE 19 39 10 21 - - 0.0
02/12:30pm 12.4 7.6 5.6 63 3.3 ESE 20 35 11 19 - - 0.0
02/12:00pm 11.9 7.3 5.5 65 3.1 ESE 19 37 10 20 - - 0.0
02/11:30am 11.2 6.3 5.3 67 2.8 ESE 20 37 11 20 - - 0.0
02/11:00am 10.5 5.9 5.5 71 2.4 ESE 19 46 10 25 - - 0.0
02/10:30am 10.3 5.6 6.1 75 2.0 ESE 20 41 11 22 - - 0.0
02/10:00am 9.7 4.2 5.7 76 1.9 ESE 24 44 13 24 - - 0.0
02/09:30am 9.1 4.0 5.8 80 1.6 ESE 22 41 12 22 - - 0.0
02/09:00am 8.3 3.3 6.4 88 0.9 ESE 22 44 12 24 - - 3.6
02/08:30am 7.4 2.7 6.2 92 0.6 ESE 20 35 11 19 - - 3.6
02/08:00am 7.0 1.9 5.9 93 0.5 ESE 22 35 12 19 - - 3.6
02/07:30am 7.0 2.0 6.3 95 0.3 ESE 22 35 12 19 - - 3.6
02/07:00am 7.4 2.4 6.3 93 0.5 ESE 22 37 12 20 - - 3.6
02/06:30am 7.6 3.0 6.7 94 0.4 ESE 20 37 11 20 - - 3.6
02/06:00am 7.9 3.6 7.0 94 0.4 ESE 19 33 10 18 - - 3.6
02/05:30am 7.5 3.1 6.6 94 0.4 ESE 19 35 10 19 - - 3.6
02/05:00am 7.5 3.5 6.8 95 0.3 ESE 17 32 9 17 - - 3.6
02/04:30am 8.0 3.8 7.6 97 0.2 ESE 19 32 10 17 - - 3.6
02/04:00am 8.5 4.8 8.1 97 0.2 ESE 17 33 9 18 - - 3.6
02/03:30am 8.9 5.4 8.6 98 0.2 ESE 17 33 9 18 - - 3.6
02/03:00am 9.3 6.2 9.0 98 0.2 ESE 15 30 8 16 - - 3.6
02/02:30am 9.7 7.5 9.4 98 0.2 SE 11 30 6 16 - - 3.6
02/02:00am 9.8 6.9 9.5 98 0.2 ESE 15 24 8 13 - - 3.4
02/01:30am 9.7 7.1 9.4 98 0.2 ESE 13 32 7 17 - - 3.4
02/01:00am 10.0 7.5 9.7 98 0.2 SE 13 22 7 12 - - 3.4
02/12:30am 10.8 8.9 10.5 98 0.2 SE 11 19 6 10 - - 3.4
02/12:00am 11.4 9.7 11.1 98 0.2 ESE 11 19 6 10 - - 3.2
 
Date/Time
CDT
Temp
°C
App
Temp
°C
Dew
Point
Rel
Hum
%
Delta-T
°C
Wind Press
QNH
hPa
Press
MSL
hPa
Rain
since 9 am
mm
Dir
 
Spd
km/h
Gust
km/h
Spd
kts
Gust
kts
01/11:30pm 11.7 9.7 11.4 98 0.2 ESE 13 28 7 15 - - 3.2
01/11:00pm 12.2 11.1 11.9 98 0.2 SE 9 22 5 12 - - 3.2
01/10:30pm 13.0 12.1 12.7 98 0.2 SE 9 17 5 9 - - 3.2
01/10:00pm 13.8 13.2 13.5 98 0.2 SSE 9 22 5 12 - - 3.2
01/09:30pm 14.1 13.6 13.8 98 0.2 S 9 19 5 10 - - 3.2
01/09:00pm 14.2 14.0 13.7 97 0.3 SW 7 13 4 7 - - 3.2
01/08:30pm 14.6 14.8 14.1 97 0.3 WSW 6 15 3 8 - - 3.2
01/08:00pm 14.6 14.6 14.1 97 0.3 WSW 7 15 4 8 - - 3.2
01/07:30pm 14.7 14.7 14.1 96 0.3 W 7 13 4 7 - - 2.2
01/07:00pm 14.7 14.6 13.9 95 0.5 WSW 7 19 4 10 - - 1.2
01/06:30pm 15.0 14.9 13.9 93 0.6 WSW 7 15 4 8 - - 0.2
01/06:00pm 15.9 15.3 13.4 85 1.4 W 9 19 5 10 - - 0.0
01/05:30pm 16.4 15.8 13.5 83 1.7 W 9 20 5 11 - - 0.0
01/05:00pm 16.2 16.1 13.9 86 1.3 W 7 17 4 9 - - 0.0
01/04:30pm 18.3 17.4 12.5 69 3.3 W 9 20 5 11 - - 0.0
01/04:00pm 19.9 18.8 11.9 60 4.6 W 9 20 5 11 - - 0.0
01/03:30pm 21.4 19.5 10.6 50 6.1 W 11 28 6 15 - - 0.0
01/03:00pm 21.8 19.3 8.3 42 7.3 W 11 20 6 11 - - 0.0
01/02:30pm 22.5 18.5 6.7 36 8.4 WNW 17 32 9 17 - - 0.0
01/02:00pm 23.3 18.3 4.8 30 9.5 WNW 20 37 11 20 - - 0.0
01/01:30pm 22.6 16.3 3.7 29 9.5 WNW 26 44 14 24 - - 0.0
01/01:00pm 23.3 17.2 2.7 26 10.2 WNW 24 44 13 24 - - 0.0
01/12:30pm 24.1 17.9 2.3 24 10.8 NW 24 44 13 24 - - 0.0
01/12:00pm 24.3 18.9 2.5 24 10.8 NW 20 44 11 24 - - 0.0
01/11:30am 23.9 18.6 2.1 24 10.7 NW 19 32 10 17 - - 0.0
01/11:00am 23.5 18.7 2.4 25 10.4 NNW 17 32 9 17 - - 0.0
01/10:30am 21.8 16.8 1.5 26 9.7 NNW 17 32 9 17 - - 0.0
01/10:00am 21.6 16.6 1.3 26 9.7 NW 17 32 9 17 - - 0.0
01/09:30am 21.4 15.8 1.1 26 9.6 NW 20 37 11 20 - - 0.0
01/09:00am 21.1 15.4 0.3 25 9.7 NW 20 44 11 24 - - 0.0
01/08:30am 21.0 15.2 0.2 25 9.7 NNW 20 44 11 24 - - 0.0
01/08:00am 20.9 15.1 0.2 25 9.6 NNW 20 39 11 21 - - 0.0
01/07:30am 21.3 15.5 -0.1 24 9.9 NNW 20 37 11 20 - - 0.0
01/07:00am 21.7 15.6 0.3 24 10.0 NW 22 43 12 23 - - 0.0
01/06:30am 22.1 16.3 0.0 23 10.3 NNW 20 37 11 20 - - 0.0
01/06:00am 22.1 16.6 0.6 24 10.1 NNW 19 32 10 17 - - 0.0
01/05:30am 22.0 16.6 1.1 25 9.9 NNW 19 33 10 18 - - 0.0
01/05:00am 21.7 17.1 1.4 26 9.7 NNW 15 30 8 16 - - 0.0
01/04:30am 21.4 17.3 2.2 28 9.3 N 13 26 7 14 - - 0.0
01/04:00am 21.3 17.3 2.6 29 9.1 N 13 24 7 13 - - 0.0
01/03:30am 21.5 18.0 3.7 31 8.9 N 11 20 6 11 - - 0.0
01/03:00am 21.6 17.7 3.3 30 9.1 N 13 24 7 13 - - 0.0
01/02:30am 21.3 17.8 3.5 31 8.8 NNE 11 26 6 14 - - 0.0
01/02:00am 21.4 17.5 3.6 31 8.8 NNE 13 24 7 13 - - 0.0
01/01:30am 21.6 18.2 3.8 31 8.9 NNE 11 22 6 12 - - 0.0
01/01:00am 21.8 18.0 3.9 31 9.0 N 13 32 7 17 - - 0.0
01/12:30am 21.6 17.8 3.8 31 8.9 NNE 13 24 7 13 - - 0.0
01/12:00am 21.6 17.7 3.3 30 9.1 NNE 13 24 7 13 - - 0.0
 
Date/Time
CDT
Temp
°C
App
Temp
°C
Dew
Point
Rel
Hum
%
Delta-T
°C
Wind Press
QNH
hPa
Press
MSL
hPa
Rain
since 9 am
mm
Dir
 
Spd
km/h
Gust
km/h
Spd
kts
Gust
kts
31/11:30pm 21.5 17.7 3.7 31 8.9 NNE 13 24 7 13 - - 0.0
31/11:00pm 21.5 18.0 3.7 31 8.9 NE 11 24 6 13 - - 0.0
31/10:30pm 21.0 18.4 3.2 31 8.8 ENE 6 11 3 6 - - 0.0
31/10:00pm 20.4 18.0 4.4 35 8.0 E 6 9 3 5 - - 0.0
31/09:30pm 19.1 17.6 6.9 45 6.4 ESE 4 7 2 4 - - 0.0
31/09:00pm 18.3 16.5 7.1 48 5.8 ESE 6 7 3 4 - - 0.0
31/08:30pm 19.0 17.2 7.1 46 6.2 ESE 6 9 3 5 - - 0.0
31/08:00pm 20.1 18.4 5.7 39 7.4 ESE 4 7 2 4 - - 0.0
31/07:30pm 22.8 20.2 3.4 28 9.7 NNE 6 7 3 4 - - 0.0
31/07:00pm 21.7 20.4 3.9 31 8.9 CALM 0 0 0 0 - - 0.0
31/06:30pm 21.8 20.8 5.7 35 8.3 CALM 0 0 0 0 - - 0.0
31/06:00pm 22.3 20.7 6.5 36 8.3 W 4 7 2 4 - - 0.0
31/05:30pm 23.5 21.2 5.9 32 9.2 W 7 13 4 7 - - 0.0
31/05:00pm 24.3 22.6 6.1 31 9.6 WNW 4 9 2 5 - - 0.0
31/04:30pm 24.2 22.3 6.9 33 9.3 W 6 15 3 8 - - 0.0
31/04:00pm 24.9 22.5 5.2 28 10.3 WNW 7 17 4 9 - - 0.0
31/03:30pm 26.0 23.2 3.3 23 11.6 NW 7 15 4 8 - - 0.0
31/03:00pm 25.4 22.7 2.8 23 11.4 NNW 6 19 3 10 - - 0.0
31/02:30pm 24.3 21.3 4.1 27 10.3 NW 9 19 5 10 - - 0.0
31/02:00pm 24.6 22.3 5.9 30 9.9 WNW 7 17 4 9 - - 0.0
31/01:30pm 23.7 21.4 5.6 31 9.5 NW 7 15 4 8 - - 0.0
31/01:00pm 23.1 20.6 6.4 34 8.8 NW 9 20 5 11 - - 0.0
31/12:30pm 22.7 20.8 6.5 35 8.6 NNW 6 15 3 8 - - 0.0
31/12:00pm 22.2 20.1 6.8 37 8.2 NNW 7 13 4 7 - - 0.0
31/11:30am 21.3 19.2 6.8 39 7.6 N 7 15 4 8 - - 0.0
31/11:00am 21.0 19.1 7.6 42 7.2 N 7 15 4 8 - - 0.0
31/10:30am 21.3 19.9 8.9 45 6.8 ENE 6 9 3 5 - - 0.0
31/10:00am 19.4 17.9 8.4 49 5.9 ENE 6 13 3 7 - - 0.0
31/09:30am 18.2 16.7 8.5 53 5.2 NE 6 13 3 7 - - 0.0
31/09:00am 16.8 15.3 8.5 58 4.4 ENE 6 13 3 7 - - 0.0
31/08:30am 14.9 13.5 8.8 67 3.2 ENE 6 11 3 6 - - 0.0
31/08:00am 14.2 12.7 9.0 71 2.7 ENE 7 15 4 8 - - 0.0
31/07:30am 13.9 12.5 8.7 71 2.7 ENE 6 11 3 6 - - 0.0
31/07:00am 14.3 12.7 8.7 69 2.9 ENE 7 11 4 6 - - 0.0
31/06:30am 14.7 13.1 8.6 67 3.2 NE 7 11 4 6 - - 0.0
31/06:00am 14.0 12.9 8.6 70 2.8 E 4 11 2 6 - - 0.0
31/05:30am 13.9 12.4 8.3 69 2.9 E 6 9 3 5 - - 0.0
31/05:00am 14.1 12.6 8.5 69 2.9 E 6 9 3 5 - - 0.0
31/04:30am 13.7 12.2 8.5 71 2.7 ESE 6 7 3 4 - - 0.0
31/04:00am 13.4 12.3 8.3 71 2.6 ESE 4 6 2 3 - - 0.0
31/03:30am 13.5 11.6 6.8 64 3.4 ESE 6 7 3 4 - - 0.0
31/03:00am 13.1 11.5 8.0 71 2.6 ESE 6 9 3 5 - - 0.0
31/02:30am 12.9 11.3 8.6 75 2.2 ESE 7 11 4 6 - - 0.0
31/02:00am 12.6 11.2 8.7 77 2.0 ESE 6 11 3 6 - - 0.0
31/01:30am 12.9 11.3 8.8 76 2.1 ESE 7 11 4 6 - - 0.0
31/01:00am 12.8 11.2 8.9 77 2.0 ESE 7 11 4 6 - - 0.0
31/12:30am 12.7 11.2 9.2 79 1.8 ESE 7 11 4 6 - - 0.0
31/12:00am 12.4 10.9 9.2 81 1.7 ESE 7 15 4 8 - - 0.0
 
Date/Time
CDT
Temp
°C
App
Temp
°C
Dew
Point
Rel
Hum
%
Delta-T
°C
Wind Press
QNH
hPa
Press
MSL
hPa
Rain
since 9 am
mm
Dir
 
Spd
km/h
Gust
km/h
Spd
kts
Gust
kts
30/11:30pm 12.5 11.0 9.3 81 1.7 ESE 7 13 4 7 - - 0.0
30/11:00pm 12.8 11.4 9.6 81 1.7 ESE 7 13 4 7 - - 0.0
30/10:30pm 12.9 11.4 9.2 78 1.9 ESE 7 13 4 7 - - 0.0
30/10:00pm 13.1 11.4 9.9 81 1.7 ESE 9 13 5 7 - - 0.0
30/09:30pm 13.5 11.9 10.1 80 1.8 ESE 9 13 5 7 - - 0.0
30/09:00pm 13.7 12.0 9.9 78 2.0 ESE 9 15 5 8 - - 0.0
30/08:30pm 14.3 12.2 9.9 75 2.4 ESE 11 17 6 9 - - 0.0
30/08:00pm 14.8 12.7 9.8 72 2.7 ESE 11 20 6 11 - - 0.0
30/07:30pm 15.8 13.3 9.7 67 3.3 ESE 13 22 7 12 - - 0.0
30/07:00pm 17.3 15.4 9.2 59 4.4 ESE 9 19 5 10 - - 0.0
30/06:30pm 19.2 18.3 9.1 52 5.5 SE 4 11 2 6 - - 0.0

Other Formats:

Comma delimited format used in spreadsheet applications
http://www.bom.gov.au/fwo/IDS60801/IDS60801.95678.axf

JavaScript Object Notation format (JSON) in row-major order
http://www.bom.gov.au/fwo/IDS60801/IDS60801.95678.json